createdAt,value
2023-05-19T00:02:20.294Z,684.00
2023-05-19T00:07:20.509Z,686.00
2023-05-19T00:12:19.721Z,678.00
2023-05-19T00:17:18.979Z,687.00
2023-05-19T00:22:19.187Z,678.00
2023-05-19T00:27:17.370Z,674.00
2023-05-19T00:32:15.686Z,674.00
2023-05-19T00:37:15.794Z,678.00
2023-05-19T00:42:15.003Z,683.00
2023-05-19T00:47:13.248Z,675.00
2023-05-19T00:52:13.525Z,676.00
2023-05-19T00:57:11.797Z,669.00
2023-05-19T01:02:12.053Z,666.00
2023-05-19T01:07:10.312Z,683.00
2023-05-19T01:12:10.628Z,683.00
2023-05-19T01:17:08.934Z,684.00
2023-05-19T01:22:08.186Z,684.00
2023-05-19T01:27:09.460Z,706.00
2023-05-19T01:32:06.786Z,687.00
2023-05-19T01:37:05.851Z,677.00
2023-05-19T01:42:07.083Z,681.00
2023-05-19T01:47:04.283Z,667.00
2023-05-19T01:52:03.487Z,681.00
2023-05-19T01:57:02.703Z,675.00
2023-05-19T02:02:01.918Z,682.00
2023-05-19T02:07:02.162Z,685.00
2023-05-19T02:12:01.397Z,672.00
2023-05-19T02:16:59.636Z,675.00
2023-05-19T02:21:59.843Z,682.00
2023-05-19T02:27:02.319Z,682.00
2023-05-19T02:31:58.392Z,683.00
2023-05-19T02:36:58.510Z,687.00
2023-05-19T02:41:55.702Z,692.00
2023-05-19T02:46:55.930Z,685.00
2023-05-19T02:51:54.155Z,688.00
2023-05-19T02:56:54.395Z,699.00
2023-05-19T03:01:52.692Z,698.00
2023-05-19T03:06:52.937Z,691.00
2023-05-19T03:11:51.175Z,697.00
2023-05-19T03:16:50.583Z,712.00
2023-05-19T03:21:50.754Z,695.00
2023-05-19T03:26:49.025Z,684.00
2023-05-19T03:31:48.281Z,683.00
2023-05-19T03:36:47.517Z,689.00
2023-05-19T03:41:46.770Z,684.00
2023-05-19T03:46:46.015Z,670.00
2023-05-19T03:51:45.259Z,673.00
2023-05-19T03:56:44.490Z,671.00
2023-05-19T04:01:43.736Z,674.00
2023-05-19T04:06:43.983Z,667.00
2023-05-19T04:11:42.251Z,666.00
2023-05-19T04:16:42.502Z,680.00
2023-05-19T04:21:40.746Z,680.00
2023-05-19T04:26:40.983Z,661.00
2023-05-19T04:31:39.280Z,662.00
2023-05-19T04:36:38.555Z,656.00
2023-05-19T04:41:38.807Z,662.00
2023-05-19T04:46:39.063Z,667.00
2023-05-19T04:51:37.257Z,656.00
2023-05-19T04:56:35.488Z,669.00
2023-05-19T05:01:35.773Z,662.00
2023-05-19T05:06:35.006Z,661.00
2023-05-19T05:11:34.283Z,657.00
2023-05-19T05:16:33.566Z,663.00
2023-05-19T05:21:32.825Z,651.00
2023-05-19T05:26:31.065Z,652.00
2023-05-19T05:31:31.334Z,655.00
2023-05-19T05:36:30.563Z,640.00
2023-05-19T05:41:29.775Z,655.00
2023-05-19T05:46:30.106Z,645.00
2023-05-19T05:51:27.323Z,658.00
2023-05-19T05:56:27.591Z,654.00
2023-05-19T06:01:25.813Z,647.00
2023-05-19T06:06:26.065Z,644.00
2023-05-19T06:11:24.310Z,642.00
2023-05-19T06:16:23.625Z,647.00
2023-05-19T06:21:23.826Z,638.00
2023-05-19T06:26:22.070Z,679.00
2023-05-19T06:31:22.378Z,718.00
2023-05-19T06:36:20.690Z,718.00
2023-05-19T06:41:20.932Z,681.00
2023-05-19T06:46:19.135Z,667.00
2023-05-19T06:51:18.334Z,679.00
2023-05-19T06:56:19.574Z,665.00
2023-05-19T07:01:18.791Z,687.00
2023-05-19T07:06:15.978Z,715.00
2023-05-19T07:11:15.185Z,704.00
2023-05-19T07:16:15.462Z,690.00
2023-05-19T07:21:13.702Z,684.00
2023-05-19T07:26:12.946Z,694.00
2023-05-19T07:31:12.225Z,653.00
2023-05-19T07:36:12.483Z,682.00
2023-05-19T07:41:10.738Z,675.00
2023-05-19T07:46:10.000Z,659.00
2023-05-19T07:51:11.287Z,665.00
2023-05-19T07:56:08.498Z,698.00
2023-05-19T08:01:08.725Z,682.00
2023-05-19T08:06:06.965Z,682.00
2023-05-19T08:11:06.187Z,739.00
2023-05-19T08:16:06.535Z,768.00
2023-05-19T08:21:05.773Z,728.00
2023-05-19T08:26:03.982Z,721.00
2023-05-19T08:31:03.249Z,678.00
2023-05-19T08:36:01.462Z,760.00
2023-05-19T08:41:02.715Z,785.00
2023-05-19T08:46:02.938Z,783.00
2023-05-19T08:51:00.117Z,753.00
2023-05-19T08:55:59.314Z,736.00
2023-05-19T09:00:58.544Z,739.00
2023-05-19T09:05:57.762Z,771.00
2023-05-19T09:10:56.950Z,756.00
2023-05-19T09:15:56.213Z,666.00
2023-05-19T09:20:55.448Z,685.00
2023-05-19T09:25:55.701Z,651.00
2023-05-19T09:30:53.944Z,661.00
2023-05-19T09:35:53.200Z,635.00
2023-05-19T09:40:52.465Z,649.00
2023-05-19T09:45:51.737Z,650.00
2023-05-19T09:50:50.965Z,611.00
2023-05-19T09:55:51.225Z,634.00
2023-05-19T10:00:49.451Z,650.00
2023-05-19T10:05:48.723Z,625.00
2023-05-19T10:10:47.968Z,624.00
2023-05-19T10:15:58.197Z,630.00
2023-05-19T10:20:46.532Z,627.00
2023-05-19T10:25:46.832Z,634.00
2023-05-19T10:30:45.108Z,607.00
2023-05-19T10:35:45.283Z,614.00
2023-05-19T10:40:43.736Z,608.00
2023-05-19T10:45:42.852Z,603.00
2023-05-19T10:50:43.113Z,604.00
2023-05-19T10:55:42.388Z,600.00
2023-05-19T11:00:41.652Z,624.00
2023-05-19T11:05:41.907Z,606.00
2023-05-19T11:10:41.130Z,633.00
2023-05-19T11:15:38.389Z,607.00
2023-05-19T11:20:37.736Z,603.00
2023-05-19T11:25:36.773Z,602.00
2023-05-19T11:30:36.034Z,619.00
2023-05-19T11:35:36.645Z,617.00
2023-05-19T11:40:36.492Z,599.00
2023-05-19T11:45:33.884Z,607.00
2023-05-19T11:50:32.926Z,614.00
2023-05-19T11:55:32.146Z,596.00
2023-05-19T12:00:31.426Z,599.00
2023-05-19T12:05:31.502Z,601.00
2023-05-19T12:10:29.803Z,625.00
2023-05-19T12:15:29.044Z,594.00
2023-05-19T12:20:28.276Z,601.00
2023-05-19T12:25:27.513Z,603.00
2023-05-19T12:30:26.764Z,592.00
2023-05-19T12:35:26.021Z,626.00
2023-05-19T12:40:25.288Z,611.00
2023-05-19T12:45:24.517Z,640.00
2023-05-19T12:50:23.781Z,647.00
2023-05-19T12:55:23.053Z,635.00
2023-05-19T13:00:22.304Z,650.00
2023-05-19T13:05:21.658Z,613.00
2023-05-19T13:10:21.931Z,632.00
2023-05-19T13:15:20.148Z,591.00
2023-05-19T13:20:19.412Z,597.00
2023-05-19T13:25:18.639Z,599.00
2023-05-19T13:30:17.909Z,615.00
2023-05-19T13:35:17.224Z,598.00
2023-05-19T13:40:17.525Z,639.00
2023-05-19T13:45:16.745Z,623.00
2023-05-19T13:50:15.957Z,650.00
2023-05-19T13:55:16.283Z,644.00
2023-05-19T14:00:13.503Z,671.00
2023-05-19T14:05:12.702Z,630.00
2023-05-19T14:10:11.967Z,623.00
2023-05-19T14:15:12.226Z,636.00
2023-05-19T14:20:11.476Z,630.00
2023-05-19T14:25:11.721Z,604.00
2023-05-19T14:30:09.997Z,625.00
2023-05-19T14:35:09.249Z,644.00
2023-05-19T14:40:07.482Z,640.00
2023-05-19T14:45:06.843Z,636.00
2023-05-19T14:50:06.036Z,654.00
2023-05-19T14:55:05.276Z,617.00
2023-05-19T15:00:05.509Z,611.00
2023-05-19T15:05:03.713Z,614.00
2023-05-19T15:10:03.952Z,609.00
2023-05-19T15:15:02.163Z,596.00
2023-05-19T15:20:01.465Z,605.00
2023-05-19T15:25:00.692Z,610.00
2023-05-19T15:30:00.048Z,619.00
2023-05-19T15:35:00.139Z,645.00
2023-05-19T15:39:58.403Z,654.00
2023-05-19T15:44:58.671Z,612.00
2023-05-19T15:49:58.954Z,635.00
2023-05-19T15:54:57.200Z,626.00
2023-05-19T15:59:56.424Z,605.00
2023-05-19T16:04:54.729Z,607.00
2023-05-19T16:09:53.998Z,616.00
2023-05-19T16:14:54.223Z,604.00
2023-05-19T16:19:52.509Z,617.00
2023-05-19T16:24:51.777Z,658.00
2023-05-19T16:29:51.071Z,651.00
2023-05-19T16:34:52.332Z,657.00
2023-05-19T16:39:49.583Z,631.00
2023-05-19T16:44:48.831Z,699.00
2023-05-19T16:49:48.099Z,685.00
2023-05-19T16:54:49.366Z,666.00
2023-05-19T16:59:48.626Z,704.00
2023-05-19T17:04:45.848Z,689.00
2023-05-19T17:09:45.211Z,679.00
2023-05-19T17:14:44.240Z,690.00
2023-05-19T17:19:43.494Z,677.00
2023-05-19T17:24:44.734Z,686.00
2023-05-19T17:29:42.005Z,660.00
2023-05-19T17:34:43.258Z,674.00
2023-05-19T17:39:43.493Z,691.00
2023-05-19T17:44:39.713Z,690.00
2023-05-19T17:49:39.000Z,673.00
2023-05-19T17:54:38.256Z,669.00
2023-05-19T17:59:39.552Z,650.00
2023-05-19T18:04:37.030Z,672.00
2023-05-19T18:09:36.288Z,664.00
2023-05-19T18:14:35.691Z,674.00
2023-05-19T18:19:34.997Z,686.00
2023-05-19T18:24:35.237Z,658.00
2023-05-19T18:29:33.487Z,706.00
2023-05-19T18:34:31.858Z,712.00
2023-05-19T18:39:33.147Z,695.00
2023-05-19T18:44:31.326Z,697.00
2023-05-19T18:49:32.576Z,711.00
2023-05-19T18:54:29.748Z,706.00
2023-05-19T18:59:29.920Z,733.00
2023-05-19T19:04:28.922Z,713.00
2023-05-19T19:09:29.352Z,727.00
2023-05-19T19:14:28.613Z,694.00
2023-05-19T19:19:25.929Z,737.00
2023-05-19T19:24:26.014Z,740.00
2023-05-19T19:29:24.246Z,709.00
2023-05-19T19:34:23.534Z,729.00
2023-05-19T19:39:22.833Z,723.00
2023-05-19T19:44:23.052Z,744.00
2023-05-19T19:49:21.249Z,763.00
2023-05-19T19:54:20.500Z,765.00
2023-05-19T19:59:19.753Z,763.00
2023-05-19T20:04:19.145Z,755.00
2023-05-19T20:09:19.232Z,735.00
2023-05-19T20:14:18.466Z,744.00
2023-05-19T20:19:16.703Z,758.00
2023-05-19T20:24:16.883Z,786.00
2023-05-19T20:29:16.046Z,776.00
2023-05-19T20:34:14.303Z,790.00
2023-05-19T20:39:14.404Z,754.00
2023-05-19T20:44:12.797Z,764.00
2023-05-19T20:49:12.924Z,768.00
2023-05-19T20:54:10.092Z,778.00
2023-05-19T20:59:10.036Z,792.00
2023-05-19T21:04:09.302Z,763.00
2023-05-19T21:09:08.557Z,757.00
2023-05-19T21:14:07.833Z,784.00
2023-05-19T21:19:08.149Z,792.00
2023-05-19T21:24:06.164Z,819.00
2023-05-19T21:29:10.556Z,789.00
2023-05-19T21:34:05.557Z,794.00
2023-05-19T21:39:03.798Z,795.00
2023-05-19T21:44:03.036Z,781.00
2023-05-19T21:49:03.297Z,786.00
2023-05-19T21:54:01.513Z,788.00
2023-05-19T21:59:00.770Z,783.00
2023-05-19T22:04:00.205Z,789.00
2023-05-19T22:08:59.339Z,792.00
2023-05-19T22:13:59.596Z,752.00
2023-05-19T22:18:58.845Z,749.00
2023-05-19T22:23:57.077Z,729.00
2023-05-19T22:28:57.300Z,718.00
2023-05-19T22:33:56.542Z,768.00
2023-05-19T22:38:54.728Z,782.00
2023-05-19T22:43:55.951Z,761.00
2023-05-19T22:48:53.184Z,713.00
2023-05-19T22:53:52.397Z,690.00
2023-05-19T22:58:52.618Z,689.00
2023-05-19T23:03:50.892Z,683.00
2023-05-19T23:08:54.215Z,680.00
2023-05-19T23:13:51.450Z,671.00
2023-05-19T23:18:48.713Z,665.00
2023-05-19T23:23:47.940Z,671.00
2023-05-19T23:28:47.192Z,674.00
2023-05-19T23:33:46.413Z,694.00
2023-05-19T23:38:45.635Z,698.00
2023-05-19T23:43:45.891Z,699.00
2023-05-19T23:48:45.111Z,719.00
2023-05-19T23:53:45.356Z,724.00
2023-05-19T23:58:42.565Z,709.00
